createdAt,value
2019-04-22T00:00:04.910Z,53
2019-04-22T00:01:25.130Z,53
2019-04-22T00:02:15.862Z,53
2019-04-22T00:03:18.816Z,53
2019-04-22T00:04:44.948Z,53
2019-04-22T00:09:30.476Z,53
2019-04-22T00:11:45.120Z,53
2019-04-22T00:13:39.010Z,53
2019-04-22T00:15:15.078Z,53
2019-04-22T00:16:14.147Z,53
2019-04-22T00:17:53.153Z,53
2019-04-22T00:19:20.485Z,53
2019-04-22T00:20:29.771Z,53
2019-04-22T00:21:38.275Z,53
2019-04-22T00:22:14.942Z,53
2019-04-22T00:23:18.242Z,53
2019-04-22T00:24:04.246Z,53
2019-04-22T00:25:40.876Z,53
2019-04-22T00:27:19.958Z,53
2019-04-22T00:28:21.322Z,53
2019-04-22T00:29:36.899Z,53
2019-04-22T00:31:45.404Z,53
2019-04-22T00:33:38.490Z,53
2019-04-22T00:34:42.166Z,53
2019-04-22T00:36:27.365Z,53
2019-04-22T00:37:49.073Z,53
2019-04-22T00:38:36.656Z,53
2019-04-22T00:39:51.134Z,53
2019-04-22T00:40:33.437Z,53
2019-04-22T00:41:19.024Z,54
2019-04-22T00:45:32.727Z,54
2019-04-22T00:46:52.062Z,54
2019-04-22T00:47:43.014Z,54
2019-04-22T00:50:18.672Z,54
2019-04-22T00:51:22.316Z,54
2019-04-22T00:52:03.100Z,54
2019-04-22T00:53:16.082Z,54
2019-04-22T00:55:37.419Z,55
2019-04-22T00:56:10.437Z,55
2019-04-22T00:57:32.014Z,55
2019-04-22T00:59:22.982Z,54
2019-04-22T01:01:13.883Z,55
2019-04-22T01:02:41.338Z,55
2019-04-22T01:03:49.082Z,55
2019-04-22T01:04:38.941Z,55
2019-04-22T01:05:33.982Z,55
2019-04-22T01:06:30.452Z,55
2019-04-22T01:07:11.118Z,55
2019-04-22T01:08:38.857Z,55
2019-04-22T01:09:44.390Z,55
2019-04-22T01:10:38.772Z,55
2019-04-22T01:11:22.527Z,55
2019-04-22T01:12:31.498Z,55
2019-04-22T01:13:38.165Z,55
2019-04-22T01:16:35.451Z,55
2019-04-22T01:17:11.310Z,56
2019-04-22T01:18:35.796Z,56
2019-04-22T01:19:38.205Z,56
2019-04-22T01:20:54.158Z,56
2019-04-22T01:21:43.433Z,56
2019-04-22T01:22:51.732Z,56
2019-04-22T01:23:17.802Z,56
2019-04-22T01:24:08.556Z,56
2019-04-22T01:25:14.256Z,56
2019-04-22T01:26:19.872Z,56
2019-04-22T01:27:07.840Z,56
2019-04-22T01:28:14.018Z,56
2019-04-22T01:28:56.213Z,56
2019-04-22T01:30:00.378Z,56
2019-04-22T01:30:45.871Z,56
2019-04-22T01:31:25.760Z,56
2019-04-22T01:32:34.894Z,56
2019-04-22T01:33:38.791Z,56
2019-04-22T01:35:01.910Z,56
2019-04-22T01:36:13.513Z,56
2019-04-22T01:38:13.034Z,57
2019-04-22T01:39:19.861Z,57
2019-04-22T01:40:30.794Z,57
2019-04-22T01:42:32.522Z,57
2019-04-22T01:44:43.590Z,57
2019-04-22T01:46:15.823Z,57
2019-04-22T01:47:36.158Z,57
2019-04-22T01:49:33.159Z,57
2019-04-22T01:52:36.511Z,57
2019-04-22T01:54:46.493Z,57
2019-04-22T01:55:36.753Z,57
2019-04-22T01:56:19.314Z,57
2019-04-22T01:57:03.085Z,57
2019-04-22T01:58:23.173Z,57
2019-04-22T01:59:25.522Z,57
2019-04-22T02:00:15.078Z,57
2019-04-22T02:05:42.421Z,58
2019-04-22T02:06:48.030Z,58
2019-04-22T02:10:39.017Z,58
2019-04-22T02:11:38.714Z,58
2019-04-22T02:13:42.604Z,58
2019-04-22T02:14:38.570Z,58
2019-04-22T02:17:44.321Z,58
2019-04-22T02:18:51.947Z,58
2019-04-22T02:20:48.135Z,58
2019-04-22T02:21:13.482Z,58
2019-04-22T02:24:50.757Z,58
2019-04-22T02:26:06.969Z,58
2019-04-22T02:26:46.257Z,58
2019-04-22T02:27:31.931Z,58
2019-04-22T02:28:53.515Z,58
2019-04-22T02:29:47.155Z,58
2019-04-22T02:32:09.708Z,58
2019-04-22T02:32:48.027Z,58
2019-04-22T02:35:03.292Z,58
2019-04-22T02:36:22.005Z,58
2019-04-22T02:37:22.593Z,58
2019-04-22T02:37:35.026Z,58
2019-04-22T02:40:44.073Z,59
2019-04-22T02:42:42.615Z,59
2019-04-22T02:42:51.405Z,59
2019-04-22T02:44:08.013Z,59
2019-04-22T02:44:57.492Z,59
2019-04-22T02:45:49.679Z,59
2019-04-22T02:48:33.704Z,59
2019-04-22T02:49:10.710Z,59
2019-04-22T02:50:01.661Z,59
2019-04-22T02:50:53.900Z,59
2019-04-22T02:51:27.582Z,59
2019-04-22T02:54:14.998Z,59
2019-04-22T02:55:48.650Z,59
2019-04-22T02:57:02.596Z,59
2019-04-22T02:59:09.385Z,59
2019-04-22T02:59:21.751Z,59
2019-04-22T03:01:04.896Z,59
2019-04-22T03:01:46.788Z,59
2019-04-22T03:03:08.349Z,59
2019-04-22T03:04:36.935Z,59
2019-04-22T03:06:42.546Z,60
2019-04-22T03:08:14.341Z,60
2019-04-22T03:09:12.383Z,60
2019-04-22T03:09:52.477Z,60
2019-04-22T03:12:51.381Z,60
2019-04-22T03:13:20.894Z,60
2019-04-22T03:14:11.184Z,60
2019-04-22T03:14:29.491Z,60
2019-04-22T03:15:50.700Z,60
2019-04-22T03:18:19.214Z,61
2019-04-22T03:19:13.558Z,61
2019-04-22T03:20:57.660Z,61
2019-04-22T03:24:19.706Z,61
2019-04-22T03:26:58.097Z,61
2019-04-22T03:27:21.702Z,61
2019-04-22T03:27:38.553Z,61
2019-04-22T03:28:36.876Z,61
2019-04-22T03:35:18.756Z,61
2019-04-22T03:35:18.756Z,61
2019-04-22T03:36:17.898Z,61
2019-04-22T03:37:42.703Z,61
2019-04-22T03:38:53.597Z,61
2019-04-22T03:40:19.433Z,61
2019-04-22T03:41:27.024Z,61
2019-04-22T03:42:09.532Z,61
2019-04-22T03:43:01.797Z,61
2019-04-22T03:44:18.512Z,61
2019-04-22T03:46:10.752Z,61
2019-04-22T03:48:02.628Z,61
2019-04-22T03:50:42.146Z,61
2019-04-22T03:52:10.466Z,61
2019-04-22T03:53:32.553Z,61
2019-04-22T03:55:01.629Z,61
2019-04-22T03:55:38.186Z,61
2019-04-22T03:56:18.189Z,62
2019-04-22T03:57:45.554Z,62
2019-04-22T03:58:20.674Z,62
2019-04-22T03:59:15.970Z,61
2019-04-22T04:00:24.339Z,61
2019-04-22T04:01:36.260Z,62
2019-04-22T04:03:00.619Z,62
2019-04-22T04:03:11.470Z,62
2019-04-22T04:04:08.721Z,62
2019-04-22T04:04:49.181Z,62
2019-04-22T04:06:16.796Z,62
2019-04-22T04:08:19.470Z,62
2019-04-22T04:08:32.631Z,62
2019-04-22T04:10:27.539Z,62
2019-04-22T04:12:12.087Z,62
2019-04-22T04:13:38.985Z,62
2019-04-22T04:14:00.309Z,62
2019-04-22T04:15:04.094Z,62
2019-04-22T04:15:54.897Z,62
2019-04-22T04:17:54.765Z,62
2019-04-22T04:19:06.892Z,62
2019-04-22T04:20:44.388Z,62
2019-04-22T04:22:58.450Z,62
2019-04-22T04:23:28.382Z,62
2019-04-22T04:25:46.355Z,62
2019-04-22T04:26:16.395Z,62
2019-04-22T04:28:24.158Z,62
2019-04-22T04:30:04.939Z,63
2019-04-22T04:30:18.536Z,63
2019-04-22T04:31:53.090Z,63
2019-04-22T04:34:27.950Z,63
2019-04-22T04:35:12.192Z,63
2019-04-22T04:37:17.588Z,63
2019-04-22T04:38:10.513Z,63
2019-04-22T04:39:42.571Z,63
2019-04-22T04:40:30.971Z,63
2019-04-22T04:40:48.121Z,63
2019-04-22T04:43:22.969Z,63
2019-04-22T04:44:22.141Z,63
2019-04-22T04:45:44.688Z,63
2019-04-22T04:46:49.434Z,63
2019-04-22T04:47:11.169Z,63
2019-04-22T04:47:47.345Z,63
2019-04-22T04:49:34.041Z,63
2019-04-22T04:50:06.715Z,63
2019-04-22T04:53:31.446Z,63
2019-04-22T04:54:21.173Z,63
2019-04-22T04:56:19.702Z,63
2019-04-22T04:57:14.269Z,63
2019-04-22T05:01:51.898Z,63
2019-04-22T05:02:44.446Z,63
2019-04-22T05:03:10.167Z,63
2019-04-22T05:04:25.237Z,63
2019-04-22T05:05:16.446Z,63
2019-04-22T05:05:56.498Z,63
2019-04-22T05:07:35.817Z,63
2019-04-22T05:07:47.113Z,63
2019-04-22T05:09:42.631Z,63
2019-04-22T05:10:40.940Z,63
2019-04-22T05:12:00.767Z,63
2019-04-22T05:13:00.650Z,63
2019-04-22T05:13:10.004Z,63
2019-04-22T05:14:05.301Z,63
2019-04-22T05:14:45.962Z,63
2019-04-22T05:18:12.168Z,63
2019-04-22T05:24:57.976Z,63
2019-04-22T05:25:31.458Z,63
2019-04-22T05:27:56.881Z,63
2019-04-22T05:30:23.133Z,63
2019-04-22T05:31:00.362Z,63
2019-04-22T05:31:56.243Z,63
2019-04-22T05:32:16.267Z,63
2019-04-22T05:33:20.898Z,62
2019-04-22T05:34:39.652Z,62
2019-04-22T05:35:37.352Z,62
2019-04-22T05:36:12.468Z,62
2019-04-22T05:37:39.854Z,62
2019-04-22T05:38:39.696Z,62
2019-04-22T05:39:48.373Z,61
2019-04-22T05:40:34.007Z,61
2019-04-22T05:41:28.548Z,61
2019-04-22T05:42:28.234Z,61
2019-04-22T05:44:34.169Z,61
2019-04-22T05:47:31.812Z,60
2019-04-22T05:48:32.883Z,60
2019-04-22T05:50:12.857Z,60
2019-04-22T05:51:36.565Z,58
2019-04-22T05:52:31.363Z,57
2019-04-22T05:54:27.163Z,55
2019-04-22T05:55:13.723Z,53
2019-04-22T05:57:09.188Z,52
2019-04-22T05:57:23.178Z,52
2019-04-22T05:58:44.673Z,52
2019-04-22T05:59:45.571Z,52
2019-04-22T06:01:03.474Z,53
2019-04-22T06:02:23.212Z,53
2019-04-22T06:03:50.595Z,54
2019-04-22T06:04:29.173Z,54
2019-04-22T06:05:41.500Z,54
2019-04-22T06:06:28.596Z,54
2019-04-22T06:07:26.053Z,54
2019-04-22T06:09:28.252Z,54
2019-04-22T06:10:45.192Z,54
2019-04-22T06:11:54.190Z,54
2019-04-22T06:12:04.368Z,54
2019-04-22T06:13:17.544Z,54
2019-04-22T06:14:13.526Z,54
2019-04-22T06:15:18.133Z,54
2019-04-22T06:16:43.884Z,54
2019-04-22T06:18:56.266Z,54
2019-04-22T06:21:18.395Z,53
2019-04-22T06:22:36.906Z,53
2019-04-22T06:24:04.458Z,53
2019-04-22T06:25:27.010Z,53
2019-04-22T06:27:01.186Z,53
2019-04-22T06:27:47.050Z,53
2019-04-22T06:28:47.984Z,53
2019-04-22T06:30:04.021Z,53
2019-04-22T06:33:33.721Z,51
2019-04-22T06:33:47.601Z,51
2019-04-22T06:34:41.633Z,51
2019-04-22T06:35:36.077Z,51
2019-04-22T06:36:44.890Z,50
2019-04-22T06:37:43.110Z,50
2019-04-22T06:38:51.224Z,50
2019-04-22T06:39:58.571Z,49
2019-04-22T06:40:31.351Z,49
2019-04-22T06:43:57.659Z,48
2019-04-22T06:45:38.122Z,48
2019-04-22T06:46:26.972Z,47
2019-04-22T06:48:29.361Z,47
2019-04-22T06:49:02.588Z,48
2019-04-22T06:51:26.791Z,47
2019-04-22T06:52:20.507Z,48
2019-04-22T06:53:40.326Z,48
2019-04-22T06:55:35.292Z,47
2019-04-22T06:56:42.453Z,47
2019-04-22T06:57:11.369Z,47
2019-04-22T06:58:28.102Z,47
2019-04-22T06:59:31.000Z,47
2019-04-22T07:00:41.434Z,47
2019-04-22T07:01:27.429Z,47
2019-04-22T07:03:34.492Z,48
2019-04-22T07:04:16.070Z,48
2019-04-22T07:04:26.796Z,48
2019-04-22T07:05:41.024Z,48
2019-04-22T07:06:41.408Z,48
2019-04-22T07:07:23.368Z,48
2019-04-22T07:10:06.230Z,47
2019-04-22T07:10:47.529Z,47
2019-04-22T07:11:49.322Z,47
2019-04-22T07:12:24.200Z,47
2019-04-22T07:13:56.151Z,46
2019-04-22T07:16:37.605Z,45
2019-04-22T07:17:42.018Z,45
2019-04-22T07:19:00.680Z,44
2019-04-22T07:19:46.940Z,44
2019-04-22T07:20:30.011Z,44
2019-04-22T07:22:21.359Z,44
2019-04-22T07:23:32.910Z,44
2019-04-22T07:24:34.106Z,44
2019-04-22T07:26:19.830Z,44
2019-04-22T07:27:27.044Z,44
2019-04-22T07:28:22.557Z,44
2019-04-22T07:29:18.772Z,44
2019-04-22T07:30:52.663Z,44
2019-04-22T07:31:15.491Z,44
2019-04-22T07:34:07.908Z,44
2019-04-22T07:34:32.922Z,44
2019-04-22T07:35:54.483Z,44
2019-04-22T07:37:53.673Z,43
2019-04-22T07:39:03.842Z,43
2019-04-22T07:39:22.877Z,43
2019-04-22T07:40:01.273Z,43
2019-04-22T07:42:18.633Z,43
2019-04-22T07:44:16.361Z,43
2019-04-22T07:45:59.834Z,43
2019-04-22T07:47:37.281Z,43
2019-04-22T07:49:50.623Z,42
2019-04-22T07:51:06.838Z,42
2019-04-22T07:52:33.257Z,42
2019-04-22T07:53:27.606Z,42
2019-04-22T07:55:45.182Z,42
2019-04-22T07:56:29.061Z,42
2019-04-22T07:57:44.037Z,42
2019-04-22T07:58:28.530Z,42
2019-04-22T07:59:40.175Z,42
2019-04-22T08:00:38.411Z,41
2019-04-22T08:01:26.250Z,41
2019-04-22T08:04:06.784Z,41
2019-04-22T08:05:04.954Z,41
2019-04-22T08:05:51.301Z,41
2019-04-22T08:06:45.847Z,41
2019-04-22T08:07:34.307Z,41
2019-04-22T08:08:43.508Z,41
2019-04-22T08:10:56.591Z,41
2019-04-22T08:12:01.785Z,41
2019-04-22T08:12:45.470Z,41
2019-04-22T08:13:34.014Z,40
2019-04-22T08:15:45.270Z,40
2019-04-22T08:16:36.414Z,40
2019-04-22T08:18:08.438Z,40
2019-04-22T08:18:53.834Z,40
2019-04-22T08:19:48.237Z,40
2019-04-22T08:20:15.435Z,40
2019-04-22T08:23:23.584Z,40
2019-04-22T08:24:41.631Z,40
2019-04-22T08:25:16.263Z,40
2019-04-22T08:27:34.959Z,38
2019-04-22T08:30:47.290Z,39
2019-04-22T08:31:48.414Z,39
2019-04-22T08:32:40.777Z,39
2019-04-22T08:33:39.579Z,39
2019-04-22T08:36:05.951Z,38
2019-04-22T08:37:11.664Z,38
2019-04-22T08:38:06.050Z,38
2019-04-22T08:39:30.799Z,38
2019-04-22T08:41:31.554Z,37
2019-04-22T08:44:56.575Z,37
2019-04-22T08:45:49.544Z,37
2019-04-22T08:47:30.575Z,37
2019-04-22T08:48:14.843Z,37
2019-04-22T08:51:35.340Z,37
2019-04-22T08:52:20.554Z,37
2019-04-22T08:54:29.585Z,35
2019-04-22T08:55:17.059Z,35
2019-04-22T08:56:44.840Z,36
2019-04-22T08:58:31.004Z,36
2019-04-22T08:59:27.772Z,36
2019-04-22T09:00:19.437Z,36
2019-04-22T09:01:26.655Z,36
2019-04-22T09:02:32.349Z,36
2019-04-22T09:04:28.981Z,36
2019-04-22T09:05:41.525Z,35
2019-04-22T09:07:07.025Z,35
2019-04-22T09:08:26.125Z,34
2019-04-22T09:08:33.626Z,34
2019-04-22T09:09:37.703Z,35
2019-04-22T09:10:29.576Z,35
2019-04-22T09:11:46.448Z,35
2019-04-22T09:12:56.645Z,35
2019-04-22T09:14:31.078Z,34
2019-04-22T09:15:30.283Z,34
2019-04-22T09:17:03.610Z,34
2019-04-22T09:17:27.646Z,34
2019-04-22T09:18:40.818Z,34
2019-04-22T09:19:33.611Z,34
2019-04-22T09:20:06.269Z,33
2019-04-22T09:21:54.225Z,33
2019-04-22T09:22:26.052Z,33
2019-04-22T09:23:52.081Z,33
2019-04-22T09:27:42.518Z,34
2019-04-22T09:28:00.407Z,34
2019-04-22T09:29:42.698Z,34
2019-04-22T09:30:39.660Z,34
2019-04-22T09:31:35.181Z,34
2019-04-22T09:33:36.665Z,34
2019-04-22T09:34:27.558Z,33
2019-04-22T09:35:35.970Z,33
2019-04-22T09:36:33.564Z,33
2019-04-22T09:37:33.021Z,33
2019-04-22T09:39:07.579Z,33
2019-04-22T09:39:20.896Z,33
2019-04-22T09:41:31.317Z,33
2019-04-22T09:42:16.097Z,33
2019-04-22T09:43:56.174Z,33
2019-04-22T09:47:48.540Z,33
2019-04-22T09:49:11.579Z,33
2019-04-22T09:51:05.246Z,32
2019-04-22T09:51:24.788Z,33
2019-04-22T09:52:14.723Z,33
2019-04-22T09:53:35.903Z,32
2019-04-22T09:59:50.457Z,32
2019-04-22T10:00:26.729Z,32
2019-04-22T10:05:40.508Z,32
2019-04-22T10:06:40.181Z,32
2019-04-22T10:08:23.676Z,32
2019-04-22T10:11:12.567Z,32
2019-04-22T10:13:40.413Z,31
2019-04-22T10:16:36.909Z,30
2019-04-22T10:19:46.229Z,29
2019-04-22T10:20:53.707Z,29
2019-04-22T10:23:31.153Z,29
2019-04-22T10:25:10.295Z,28
2019-04-22T10:26:50.217Z,28
2019-04-22T10:29:41.374Z,29
2019-04-22T10:30:46.702Z,29
2019-04-22T10:32:06.383Z,28
2019-04-22T10:32:41.723Z,29
2019-04-22T10:33:25.389Z,29
2019-04-22T10:34:03.487Z,29
2019-04-22T10:34:40.739Z,29
2019-04-22T10:35:23.526Z,29
2019-04-22T10:36:03.805Z,29
2019-04-22T10:37:21.565Z,29
2019-04-22T10:38:04.146Z,29
2019-04-22T10:39:04.426Z,28
2019-04-22T10:40:11.624Z,28
2019-04-22T10:41:05.016Z,28
2019-04-22T10:42:05.123Z,28
2019-04-22T10:43:03.543Z,28
2019-04-22T10:44:03.666Z,29
2019-04-22T10:45:04.034Z,29
2019-04-22T10:46:04.396Z,29
2019-04-22T10:47:04.385Z,28
2019-04-22T10:48:04.210Z,29
2019-04-22T10:49:04.426Z,29
2019-04-22T10:50:04.734Z,29
2019-04-22T10:51:04.793Z,29
2019-04-22T10:52:04.735Z,29
2019-04-22T10:53:03.693Z,29
2019-04-22T10:54:03.170Z,29
2019-04-22T10:55:03.654Z,29
2019-04-22T10:56:03.399Z,29
2019-04-22T10:57:04.007Z,29
2019-04-22T10:58:04.546Z,29
2019-04-22T10:59:04.941Z,29
2019-04-22T11:00:05.119Z,29
2019-04-22T11:01:05.585Z,29
2019-04-22T11:02:03.748Z,29
2019-04-22T11:03:04.364Z,29
2019-04-22T11:04:03.637Z,29
2019-04-22T11:05:04.200Z,27
2019-04-22T11:06:03.641Z,27
2019-04-22T11:07:14.677Z,28
2019-04-22T11:08:28.412Z,28
2019-04-22T11:09:10.461Z,28
2019-04-22T11:11:10.325Z,28
2019-04-22T11:11:46.532Z,28
2019-04-22T11:12:25.104Z,28
2019-04-22T11:13:03.202Z,28
2019-04-22T11:14:08.980Z,27
2019-04-22T11:15:03.684Z,27
2019-04-22T11:16:03.624Z,27
2019-04-22T11:17:09.033Z,27
2019-04-22T11:18:03.408Z,27
2019-04-22T11:19:03.714Z,27
2019-04-22T11:20:03.987Z,27
2019-04-22T11:21:03.435Z,27
2019-04-22T11:22:28.295Z,26
2019-04-22T11:23:04.854Z,26
2019-04-22T11:24:05.252Z,26
2019-04-22T11:25:03.810Z,26
2019-04-22T11:26:04.067Z,26
2019-04-22T11:27:05.365Z,26
2019-04-22T11:28:07.508Z,26
2019-04-22T11:29:03.794Z,26
2019-04-22T11:30:05.870Z,26
2019-04-22T11:31:03.873Z,26
2019-04-22T11:32:04.477Z,26
2019-04-22T11:33:04.744Z,26
2019-04-22T11:34:03.291Z,26
2019-04-22T11:35:03.937Z,26
2019-04-22T11:36:04.011Z,26
2019-04-22T11:37:03.470Z,26
2019-04-22T11:38:04.789Z,26
2019-04-22T11:39:14.786Z,26
2019-04-22T11:40:37.771Z,25
2019-04-22T11:41:07.216Z,25
2019-04-22T11:42:04.710Z,26
2019-04-22T11:43:04.182Z,26
2019-04-22T11:44:03.409Z,26
2019-04-22T11:45:03.779Z,26
2019-04-22T11:46:03.441Z,26
2019-04-22T11:47:03.593Z,25
2019-04-22T11:48:03.802Z,25
2019-04-22T11:49:03.927Z,26
2019-04-22T11:50:03.934Z,26
2019-04-22T11:51:04.590Z,26
2019-04-22T11:52:14.680Z,26
2019-04-22T11:53:04.941Z,26
2019-04-22T11:54:05.344Z,26
2019-04-22T11:55:04.697Z,26
2019-04-22T11:56:04.962Z,26
2019-04-22T11:57:05.659Z,26
2019-04-22T11:58:03.893Z,26
2019-04-22T11:59:05.012Z,26
2019-04-22T12:00:05.090Z,26
2019-04-22T12:01:03.657Z,26
2019-04-22T12:02:04.935Z,26
2019-04-22T12:03:05.400Z,26
2019-04-22T12:04:04.235Z,26
2019-04-22T12:05:04.003Z,26
2019-04-22T12:06:04.200Z,26
2019-04-22T12:07:06.063Z,26
2019-04-22T12:08:05.174Z,25
2019-04-22T12:09:04.041Z,25
2019-04-22T12:10:42.581Z,26
2019-04-22T12:11:09.909Z,26
2019-04-22T12:12:03.676Z,26
2019-04-22T12:13:04.086Z,26
2019-04-22T12:14:04.340Z,26
2019-04-22T12:15:04.322Z,26
2019-04-22T12:16:03.538Z,26
2019-04-22T12:17:03.794Z,26
2019-04-22T12:18:03.884Z,26
2019-04-22T12:19:03.376Z,26
2019-04-22T12:20:14.180Z,26
2019-04-22T12:21:05.132Z,26
2019-04-22T12:22:04.974Z,26
2019-04-22T12:23:03.418Z,26
2019-04-22T12:24:03.646Z,26
2019-04-22T12:25:04.310Z,26
2019-04-22T12:26:19.107Z,26
2019-04-22T12:27:04.512Z,26
2019-04-22T12:28:05.436Z,25
2019-04-22T12:29:04.913Z,25
2019-04-22T12:30:03.273Z,26
2019-04-22T12:31:03.986Z,26
2019-04-22T12:32:03.542Z,26
2019-04-22T12:33:14.398Z,26
2019-04-22T12:34:03.872Z,26
2019-04-22T12:35:04.920Z,26
2019-04-22T12:36:02.551Z,26
2019-04-22T12:37:02.855Z,26
2019-04-22T12:38:15.039Z,26
2019-04-22T12:39:03.556Z,26
2019-04-22T12:40:04.639Z,26
2019-04-22T12:41:10.257Z,26
2019-04-22T12:42:06.125Z,26
2019-04-22T12:43:07.879Z,26
2019-04-22T12:44:03.485Z,26
2019-04-22T12:45:04.402Z,26
2019-04-22T12:46:03.434Z,26
2019-04-22T12:47:07.513Z,26
2019-04-22T12:48:04.371Z,26
2019-04-22T12:49:04.586Z,26
2019-04-22T12:50:20.395Z,26
2019-04-22T12:51:03.098Z,26
2019-04-22T12:52:03.230Z,26
2019-04-22T12:53:14.228Z,26
2019-04-22T12:54:03.601Z,26
2019-04-22T12:55:03.958Z,26
2019-04-22T12:56:03.106Z,26
2019-04-22T12:57:04.081Z,26
2019-04-22T12:58:03.444Z,26
2019-04-22T12:59:04.446Z,26
2019-04-22T13:00:03.778Z,26
2019-04-22T13:01:03.449Z,26
2019-04-22T13:02:05.041Z,26
2019-04-22T13:03:03.274Z,26
2019-04-22T13:04:12.273Z,26
2019-04-22T13:05:04.099Z,26
2019-04-22T13:06:03.927Z,26
2019-04-22T13:07:03.999Z,26
2019-04-22T13:08:03.770Z,26
2019-04-22T13:09:04.349Z,26
2019-04-22T13:10:04.147Z,26
2019-04-22T13:11:14.260Z,26
2019-04-22T13:12:03.604Z,26
2019-04-22T13:13:05.097Z,26
2019-04-22T13:14:05.118Z,26
2019-04-22T13:15:07.556Z,26
2019-04-22T13:16:04.824Z,26
2019-04-22T13:17:04.128Z,26
2019-04-22T13:18:21.284Z,26
2019-04-22T13:19:09.345Z,26
2019-04-22T13:20:03.413Z,26
2019-04-22T13:21:02.697Z,26
2019-04-22T13:22:05.132Z,26
2019-04-22T13:23:04.114Z,26
2019-04-22T13:24:02.981Z,26
2019-04-22T13:25:04.114Z,26
2019-04-22T13:26:05.200Z,26
2019-04-22T13:27:03.399Z,26
2019-04-22T13:28:03.094Z,26
2019-04-22T13:29:05.301Z,26
2019-04-22T13:30:06.348Z,26
2019-04-22T13:31:05.442Z,26
2019-04-22T13:32:05.018Z,26
2019-04-22T13:33:03.177Z,26
2019-04-22T13:34:05.640Z,26
2019-04-22T13:35:05.796Z,26
2019-04-22T13:36:03.892Z,26
2019-04-22T13:37:03.332Z,26
2019-04-22T13:38:04.521Z,26
2019-04-22T13:39:03.096Z,26
2019-04-22T13:40:05.039Z,26
2019-04-22T13:41:28.810Z,26
2019-04-22T13:42:11.798Z,26
2019-04-22T13:43:03.046Z,26
2019-04-22T13:44:05.098Z,26
2019-04-22T13:45:04.188Z,26
2019-04-22T13:46:03.953Z,26
2019-04-22T13:47:40.851Z,26
2019-04-22T13:50:49.215Z,26
2019-04-22T13:51:20.444Z,26
2019-04-22T13:52:11.383Z,26
2019-04-22T13:54:29.295Z,26
2019-04-22T13:54:48.010Z,26
2019-04-22T13:56:36.861Z,26
2019-04-22T13:57:37.715Z,26
2019-04-22T13:58:31.051Z,26
2019-04-22T13:59:26.557Z,26
2019-04-22T14:00:06.015Z,26
2019-04-22T14:01:05.025Z,26
2019-04-22T14:02:04.591Z,26
2019-04-22T14:03:02.720Z,26
2019-04-22T14:04:02.970Z,26
2019-04-22T14:05:04.452Z,26
2019-04-22T14:06:05.007Z,26
2019-04-22T14:07:05.231Z,26
2019-04-22T14:08:06.677Z,26
2019-04-22T14:09:03.520Z,26
2019-04-22T14:10:04.502Z,26
2019-04-22T14:11:25.567Z,26
2019-04-22T14:12:08.113Z,26
2019-04-22T14:13:03.935Z,26
2019-04-22T14:14:03.014Z,26
2019-04-22T14:15:04.383Z,26
2019-04-22T14:16:04.884Z,26
2019-04-22T14:17:03.263Z,26
2019-04-22T14:18:05.264Z,26
2019-04-22T14:19:03.485Z,26
2019-04-22T14:20:04.900Z,26
2019-04-22T14:21:05.246Z,26
2019-04-22T14:22:04.074Z,26
2019-04-22T14:23:07.903Z,26
2019-04-22T14:24:05.022Z,26
2019-04-22T14:25:03.062Z,26
2019-04-22T14:26:05.320Z,26
2019-04-22T14:27:30.277Z,26
2019-04-22T14:28:13.470Z,26
2019-04-22T14:29:04.234Z,26
2019-04-22T14:30:03.045Z,26
2019-04-22T14:31:04.511Z,26
2019-04-22T14:32:17.539Z,26
2019-04-22T14:33:04.909Z,26
2019-04-22T14:34:07.712Z,26
2019-04-22T14:35:05.075Z,26
2019-04-22T14:36:05.020Z,26
2019-04-22T14:37:03.692Z,26
2019-04-22T14:38:04.701Z,26
2019-04-22T14:39:04.020Z,26
2019-04-22T14:40:09.414Z,26
2019-04-22T14:41:03.320Z,26
2019-04-22T14:42:43.760Z,26
2019-04-22T14:43:47.579Z,26
2019-04-22T14:45:27.918Z,26
2019-04-22T14:46:49.046Z,26
2019-04-22T14:49:47.080Z,26
2019-04-22T14:50:45.061Z,26
2019-04-22T14:51:36.963Z,26
2019-04-22T14:53:40.932Z,26
2019-04-22T14:54:34.474Z,26
2019-04-22T14:55:17.403Z,26
2019-04-22T14:56:04.498Z,26
2019-04-22T14:57:03.428Z,26
2019-04-22T14:58:02.954Z,26
2019-04-22T14:59:05.214Z,26
2019-04-22T15:00:04.400Z,26
2019-04-22T15:01:03.931Z,26
2019-04-22T15:02:03.615Z,26
2019-04-22T15:03:03.969Z,26
2019-04-22T15:04:03.248Z,26
2019-04-22T15:05:03.922Z,26
2019-04-22T15:06:04.298Z,26
2019-04-22T15:07:03.500Z,26
2019-04-22T15:08:03.705Z,26
2019-04-22T15:09:03.919Z,26
2019-04-22T15:10:04.271Z,26
2019-04-22T15:11:06.340Z,26
2019-04-22T15:12:24.329Z,26
2019-04-22T15:13:03.457Z,26
2019-04-22T15:14:05.404Z,26
2019-04-22T15:15:03.941Z,26
2019-04-22T15:16:03.612Z,26
2019-04-22T15:17:05.081Z,26
2019-04-22T15:18:03.236Z,26
2019-04-22T15:19:04.239Z,26
2019-04-22T15:20:03.920Z,26
2019-04-22T15:21:03.129Z,26
2019-04-22T15:22:05.161Z,26
2019-04-22T15:23:04.834Z,26
2019-04-22T15:24:04.749Z,26
2019-04-22T15:25:05.090Z,26
2019-04-22T15:26:04.719Z,26
2019-04-22T15:27:04.870Z,26
2019-04-22T15:28:03.782Z,26
2019-04-22T15:29:03.413Z,26
2019-04-22T15:30:03.738Z,26
2019-04-22T15:31:03.760Z,26
2019-04-22T15:32:03.586Z,26
2019-04-22T15:33:03.429Z,26
2019-04-22T15:34:04.631Z,26
2019-04-22T15:35:03.015Z,26
2019-04-22T15:36:03.735Z,26
2019-04-22T15:37:04.407Z,26
2019-04-22T15:38:04.852Z,26
2019-04-22T15:39:03.118Z,26
2019-04-22T15:40:04.789Z,26
2019-04-22T15:41:05.143Z,26
2019-04-22T15:42:19.821Z,26
2019-04-22T15:43:04.814Z,26
2019-04-22T15:44:03.804Z,26
2019-04-22T15:45:07.852Z,26
2019-04-22T15:46:04.426Z,26
2019-04-22T15:47:02.967Z,26
2019-04-22T15:48:04.245Z,26
2019-04-22T15:49:04.333Z,26
2019-04-22T15:50:03.962Z,26
2019-04-22T15:51:04.978Z,26
2019-04-22T15:52:07.549Z,26
2019-04-22T15:53:04.727Z,26
2019-04-22T15:54:03.755Z,26
2019-04-22T15:55:04.977Z,26
2019-04-22T15:56:04.668Z,26
2019-04-22T15:57:04.811Z,26
2019-04-22T15:58:04.007Z,26
2019-04-22T15:59:38.570Z,26
2019-04-22T16:00:29.074Z,26
2019-04-22T16:01:21.536Z,26
2019-04-22T16:02:06.476Z,26
2019-04-22T16:03:08.449Z,26
2019-04-22T16:04:03.236Z,26
2019-04-22T16:05:04.649Z,26
2019-04-22T16:06:04.166Z,26
2019-04-22T16:07:05.194Z,26
2019-04-22T16:08:03.477Z,26
2019-04-22T16:09:04.758Z,26
2019-04-22T16:10:03.937Z,26
2019-04-22T16:11:04.246Z,26
2019-04-22T16:12:19.846Z,26
2019-04-22T16:13:14.875Z,26
2019-04-22T16:14:04.334Z,26
2019-04-22T16:15:06.988Z,26
2019-04-22T16:16:04.906Z,26
2019-04-22T16:17:04.498Z,26
2019-04-22T16:18:08.613Z,26
2019-04-22T16:19:04.551Z,26
2019-04-22T16:20:03.759Z,26
2019-04-22T16:21:04.976Z,26
2019-04-22T16:22:13.171Z,26
2019-04-22T16:23:03.580Z,26
2019-04-22T16:24:02.809Z,26
2019-04-22T16:25:04.890Z,26
2019-04-22T16:26:03.466Z,26
2019-04-22T16:27:04.751Z,26
2019-04-22T16:28:03.358Z,26
2019-04-22T16:29:03.475Z,26
2019-04-22T16:30:03.762Z,26
2019-04-22T16:31:04.002Z,26
2019-04-22T16:32:03.206Z,26
2019-04-22T16:33:03.591Z,26
2019-04-22T16:34:06.281Z,26
2019-04-22T16:35:04.591Z,26
2019-04-22T16:36:02.925Z,26
2019-04-22T16:37:03.250Z,26
2019-04-22T16:38:04.470Z,26
2019-04-22T16:39:04.710Z,26
2019-04-22T16:40:03.203Z,26
2019-04-22T16:41:03.127Z,26
2019-04-22T16:42:04.852Z,26
2019-04-22T16:43:09.258Z,26
2019-04-22T16:44:04.689Z,26
2019-04-22T16:45:03.935Z,26
2019-04-22T16:46:03.443Z,26
2019-04-22T16:47:03.809Z,26
2019-04-22T16:48:04.262Z,26
2019-04-22T16:49:03.510Z,26
2019-04-22T16:50:03.889Z,26
2019-04-22T16:51:04.489Z,26
2019-04-22T16:52:03.975Z,26
2019-04-22T16:53:04.191Z,26
2019-04-22T16:54:04.174Z,26
2019-04-22T16:55:05.456Z,26
2019-04-22T16:56:02.904Z,26
2019-04-22T16:57:03.923Z,26
2019-04-22T16:58:05.407Z,26
2019-04-22T16:59:04.695Z,26
2019-04-22T17:00:04.803Z,26
2019-04-22T17:01:04.936Z,26
2019-04-22T17:02:04.395Z,26
2019-04-22T17:03:04.876Z,26
2019-04-22T17:04:04.918Z,26
2019-04-22T17:05:03.338Z,26
2019-04-22T17:06:03.640Z,26
2019-04-22T17:07:03.747Z,26
2019-04-22T17:08:03.702Z,26
2019-04-22T17:09:04.657Z,26
2019-04-22T17:10:04.088Z,26
2019-04-22T17:11:04.283Z,26
2019-04-22T17:12:03.729Z,26
2019-04-22T17:13:13.465Z,26
2019-04-22T17:14:03.595Z,26
2019-04-22T17:15:10.191Z,26
2019-04-22T17:16:03.015Z,26
2019-04-22T17:17:04.439Z,26
2019-04-22T17:18:03.493Z,26